Archival Weather

Bob Hope

Burbank, California (KBUR)

Report from: Monday, January 29, 2024 12:53 PM PST
Current time: Friday, June 14, 2024 5:28 AM PDT

Current weather – Weather history – Daily summaries
Weather forecast

Temperature24.4°C (75.9°F)
Dew point0.0°C (32.0°F)
Winds 4 kts (2.1 m/s, 4.6 mph) Vrb
Winds variableWinds variable
Visibility10 mi. (16.1 km)
Clouds Sky clear
Altimeter30.07 in.Hg (1018 mB)
Relative humidity20 %
Density altitude1,058 ft. (322 m)
Sea-level pressure101.7 kPa (1017 mB, 30.04 in.Hg)
Remarks Automated weather observing station with precipitation discriminator
Pressure falling more quickly
Flight conditions Visual Meteorological Conditions
Raw dataKBUR 292053Z VRB04KT 10SM CLR 24/00 A3007 RMK AO2 SLP171 T02440000 58028
An error has occurred. This application may no longer respond until reloaded. Reload 🗙